createdAt,value
2023-03-06T00:04:17.512Z,2.27
2023-03-06T00:09:22.472Z,2.23
2023-03-06T00:14:26.240Z,2.30
2023-03-06T00:19:29.786Z,2.20
2023-03-06T00:24:34.582Z,2.27
2023-03-06T00:29:38.360Z,2.20
2023-03-06T00:34:42.977Z,2.37
2023-03-06T00:39:49.660Z,2.17
2023-03-06T00:44:53.471Z,2.00
2023-03-06T00:49:58.539Z,1.57
2023-03-06T00:55:05.789Z,1.50
2023-03-06T01:00:12.008Z,2.03
2023-03-06T01:05:16.316Z,1.63
2023-03-06T01:10:21.512Z,1.57
2023-03-06T01:15:25.356Z,1.80
2023-03-06T01:20:29.656Z,1.63
2023-03-06T01:25:34.866Z,1.43
2023-03-06T01:30:38.452Z,1.53
2023-03-06T01:35:42.447Z,1.43
2023-03-06T01:40:48.402Z,1.00
2023-03-06T01:46:25.897Z,1.03
2023-03-06T01:51:33.408Z,1.40
2023-03-06T01:56:41.440Z,1.67
2023-03-06T02:01:45.956Z,1.30
2023-03-06T02:06:51.862Z,1.40
2023-03-06T02:11:56.705Z,1.07
2023-03-06T02:17:00.516Z,1.17
2023-03-06T02:22:04.795Z,1.10
2023-03-06T02:27:14.395Z,1.07
2023-03-06T02:32:18.625Z,1.47
2023-03-06T02:37:23.009Z,1.17
2023-03-06T02:42:29.544Z,1.20
2023-03-06T02:47:33.893Z,1.10
2023-03-06T02:52:37.459Z,1.07
2023-03-06T02:57:42.549Z,0.90
2023-03-06T03:02:47.236Z,1.07
2023-03-06T03:07:51.036Z,1.40
2023-03-06T03:12:57.255Z,1.50
2023-03-06T03:18:01.539Z,1.47
2023-03-06T03:23:05.265Z,1.13
2023-03-06T03:28:11.278Z,1.10
2023-03-06T03:33:16.194Z,1.67
2023-03-06T03:38:20.050Z,1.30
2023-03-06T03:43:24.994Z,1.00
2023-03-06T03:48:28.585Z,1.07
2023-03-06T03:53:33.190Z,1.43
2023-03-06T03:58:38.179Z,1.27
2023-03-06T04:03:44.465Z,1.13
2023-03-06T04:08:50.231Z,1.20
2023-03-06T04:13:55.192Z,1.03
2023-03-06T04:18:59.122Z,1.10
2023-03-06T04:24:03.041Z,0.93
2023-03-06T04:29:10.754Z,0.93
2023-03-06T04:34:14.298Z,1.10
2023-03-06T04:39:18.616Z,1.13
2023-03-06T04:44:23.545Z,1.40
2023-03-06T04:49:27.743Z,1.43
2023-03-06T04:54:31.342Z,1.30
2023-03-06T04:59:38.847Z,1.90
2023-03-06T05:04:42.590Z,1.80
2023-03-06T05:09:46.025Z,1.80
2023-03-06T05:14:51.116Z,1.73
2023-03-06T05:19:55.000Z,1.50
2023-03-06T05:24:58.779Z,1.60
2023-03-06T05:30:06.187Z,1.40
2023-03-06T05:35:16.491Z,1.63
2023-03-06T05:40:20.426Z,2.37
2023-03-06T05:45:25.842Z,2.43
2023-03-06T05:50:29.794Z,1.73
2023-03-06T05:55:33.644Z,2.00
2023-03-06T06:00:38.874Z,1.73
2023-03-06T06:05:42.461Z,1.60
2023-03-06T06:10:46.090Z,2.20
2023-03-06T06:15:50.979Z,2.40
2023-03-06T06:20:55.935Z,2.30
2023-03-06T06:26:01.071Z,2.80
2023-03-06T06:31:12.260Z,2.53
2023-03-06T06:36:21.471Z,2.60
2023-03-06T06:41:46.171Z,3.20
2023-03-06T06:47:21.234Z,2.10
2023-03-06T06:52:13.672Z,2.70
2023-03-06T06:57:17.744Z,2.07
2023-03-06T07:02:23.657Z,2.20
2023-03-06T07:07:27.026Z,2.30
2023-03-06T07:12:32.871Z,2.47
2023-03-06T07:17:37.727Z,2.30
2023-03-06T07:22:50.498Z,2.60
2023-03-06T07:27:55.616Z,2.30
2023-03-06T07:33:01.112Z,3.00
2023-03-06T07:38:04.471Z,3.00
2023-03-06T07:43:18.788Z,3.00
2023-03-06T07:48:32.747Z,3.00
2023-03-06T07:53:36.610Z,3.10
2023-03-06T07:58:41.862Z,2.97
2023-03-06T08:03:46.713Z,3.17
2023-03-06T08:08:51.371Z,3.40
2023-03-06T08:13:55.393Z,3.13
2023-03-06T08:19:00.401Z,3.27
2023-03-06T08:24:03.960Z,2.90
2023-03-06T08:29:08.143Z,3.03
2023-03-06T08:34:16.228Z,2.87
2023-03-06T08:39:21.074Z,2.83
2023-03-06T08:44:24.486Z,3.00
2023-03-06T08:49:29.283Z,2.93
2023-03-06T08:54:32.556Z,3.20
2023-03-06T08:59:36.029Z,3.13
2023-03-06T09:04:40.835Z,3.10
2023-03-06T09:09:44.255Z,2.87
2023-03-06T09:14:47.616Z,2.90
2023-03-06T09:19:52.606Z,2.87
2023-03-06T09:24:55.936Z,3.30
2023-03-06T09:29:59.462Z,2.77
2023-03-06T09:35:04.307Z,2.80
2023-03-06T09:40:08.441Z,3.27
2023-03-06T09:45:14.286Z,2.87
2023-03-06T09:50:30.091Z,3.80
2023-03-06T09:55:36.292Z,3.10
2023-03-06T10:00:43.036Z,2.97
2023-03-06T10:05:51.541Z,3.07
2023-03-06T10:11:01.976Z,2.97
2023-03-06T10:16:17.171Z,2.57
2023-03-06T10:21:34.615Z,2.53
2023-03-06T10:26:43.408Z,2.83
2023-03-06T10:31:55.312Z,2.83
2023-03-06T10:37:03.887Z,3.10
2023-03-06T10:42:09.871Z,3.35
2023-03-06T10:47:30.181Z,2.58
2023-03-06T10:52:36.100Z,3.10
2023-03-06T10:57:39.406Z,2.90
2023-03-06T11:02:42.893Z,2.60
2023-03-06T11:07:57.436Z,2.83
2023-03-06T11:13:03.035Z,3.45
2023-03-06T11:18:23.646Z,3.07
2023-03-06T11:23:39.168Z,2.93
2023-03-06T11:28:47.253Z,2.88
2023-03-06T11:33:54.836Z,2.85
2023-03-06T11:38:59.609Z,3.35
2023-03-06T11:44:13.574Z,3.28
2023-03-06T11:49:25.119Z,3.50
2023-03-06T11:54:30.299Z,3.30
2023-03-06T12:00:03.175Z,3.38
2023-03-06T12:05:35.236Z,3.42
2023-03-06T12:10:51.554Z,2.95
2023-03-06T12:16:13.555Z,3.13
2023-03-06T12:21:26.989Z,3.88
2023-03-06T12:26:53.602Z,3.03
2023-03-06T12:32:08.688Z,3.13
2023-03-06T12:37:23.559Z,3.20
2023-03-06T12:43:00.990Z,3.55
2023-03-06T12:48:10.746Z,3.28
2023-03-06T12:53:27.726Z,3.70
2023-03-06T12:58:49.218Z,3.35
2023-03-06T13:04:07.003Z,2.88
2023-03-06T13:09:20.257Z,3.13
2023-03-06T13:14:34.097Z,3.40
2023-03-06T13:19:37.528Z,3.42
2023-03-06T13:24:43.242Z,3.60
2023-03-06T13:30:13.556Z,3.00
2023-03-06T13:35:53.583Z,3.67
2023-03-06T13:41:50.296Z,3.33
2023-03-06T13:47:00.199Z,3.22
2023-03-06T13:52:11.762Z,3.53
2023-03-06T13:57:32.320Z,3.70
2023-03-06T14:02:57.639Z,4.25
2023-03-06T14:08:11.424Z,4.03
2023-03-06T14:13:21.112Z,3.40
2023-03-06T14:18:26.921Z,3.15
2023-03-06T14:23:34.432Z,3.95
2023-03-06T14:28:37.960Z,4.00
2023-03-06T14:33:45.853Z,3.45
2023-03-06T14:38:53.979Z,3.40
2023-03-06T14:44:10.733Z,3.33
2023-03-06T14:49:15.632Z,3.55
2023-03-06T14:54:23.599Z,3.28
2023-03-06T14:59:29.983Z,3.25
2023-03-06T15:04:40.234Z,3.72
2023-03-06T15:09:48.729Z,3.05
2023-03-06T15:14:59.990Z,3.85
2023-03-06T15:20:03.661Z,4.07
2023-03-06T15:25:26.787Z,3.45
2023-03-06T15:30:32.567Z,3.13
2023-03-06T15:35:37.946Z,3.30
2023-03-06T15:40:56.209Z,3.22
2023-03-06T15:46:01.599Z,3.33
2023-03-06T15:51:06.212Z,3.08
2023-03-06T15:56:13.015Z,3.33
2023-03-06T16:01:18.544Z,3.17
2023-03-06T16:06:24.692Z,3.75
2023-03-06T16:11:41.900Z,3.20
2023-03-06T16:16:47.153Z,3.17
2023-03-06T16:21:51.665Z,2.97
2023-03-06T16:26:57.750Z,2.95
2023-03-06T16:32:02.439Z,3.53
2023-03-06T16:37:07.748Z,3.03
2023-03-06T16:42:13.104Z,3.17
2023-03-06T16:47:17.300Z,3.47
2023-03-06T16:52:20.971Z,3.78
2023-03-06T16:57:31.542Z,4.57
2023-03-06T17:02:36.328Z,3.33
2023-03-06T17:07:42.089Z,2.15
2023-03-06T17:12:47.282Z,2.85
2023-03-06T17:17:51.758Z,3.60
2023-03-06T17:22:55.422Z,3.90
2023-03-06T17:28:01.040Z,3.33
2023-03-06T17:33:04.683Z,3.10
2023-03-06T17:38:08.318Z,3.85
2023-03-06T17:43:13.887Z,3.80
2023-03-06T17:48:18.165Z,3.15
2023-03-06T17:53:22.988Z,4.03
2023-03-06T17:58:29.523Z,3.38
2023-03-06T18:03:33.832Z,4.07
2023-03-06T18:08:39.698Z,3.97
2023-03-06T18:13:54.797Z,3.30
2023-03-06T18:19:00.367Z,3.78
2023-03-06T18:24:04.623Z,3.78
2023-03-06T18:29:13.842Z,3.95
2023-03-06T18:34:25.115Z,4.55
2023-03-06T18:39:29.505Z,3.80
2023-03-06T18:44:37.139Z,5.10
2023-03-06T18:49:44.098Z,5.63
2023-03-06T18:54:54.118Z,5.78
2023-03-06T19:00:01.859Z,4.70
2023-03-06T19:05:06.891Z,6.20
2023-03-06T19:10:14.024Z,8.20
2023-03-06T19:15:23.843Z,7.22
2023-03-06T19:20:29.245Z,6.72
2023-03-06T19:25:35.131Z,5.72
2023-03-06T19:30:44.925Z,4.45
2023-03-06T19:35:49.831Z,4.47
2023-03-06T19:40:55.968Z,4.35
2023-03-06T19:46:04.777Z,4.55
2023-03-06T19:51:12.351Z,3.77
2023-03-06T19:56:20.580Z,4.15
2023-03-06T20:01:29.602Z,3.97
2023-03-06T20:06:46.070Z,3.90
2023-03-06T20:11:52.115Z,4.50
2023-03-06T20:17:00.380Z,4.47
2023-03-06T20:22:07.516Z,3.93
2023-03-06T20:27:12.329Z,3.90
2023-03-06T20:32:18.687Z,4.13
2023-03-06T20:37:23.299Z,3.70
2023-03-06T20:42:28.440Z,3.57
2023-03-06T20:47:36.568Z,4.03
2023-03-06T20:52:41.824Z,3.80
2023-03-06T20:57:45.937Z,4.10
2023-03-06T21:02:52.340Z,4.57
2023-03-06T21:07:57.301Z,3.72
2023-03-06T21:13:03.048Z,3.70
2023-03-06T21:18:10.190Z,4.60
2023-03-06T21:23:14.496Z,3.23
2023-03-06T21:28:19.684Z,4.27
2023-03-06T21:33:25.341Z,3.38
2023-03-06T21:38:28.904Z,3.80
2023-03-06T21:43:32.307Z,3.93
2023-03-06T21:48:37.242Z,5.13
2023-03-06T21:53:42.934Z,3.77
2023-03-06T21:58:46.658Z,4.00
2023-03-06T22:03:52.136Z,3.50
2023-03-06T22:08:56.549Z,3.45
2023-03-06T22:14:00.131Z,3.77
2023-03-06T22:19:05.352Z,3.85
2023-03-06T22:24:08.886Z,4.35
2023-03-06T22:29:12.449Z,3.60
2023-03-06T22:34:17.637Z,3.55
2023-03-06T22:39:20.941Z,3.47
2023-03-06T22:44:24.554Z,3.80
2023-03-06T22:49:29.412Z,4.47
2023-03-06T22:54:32.923Z,4.67
2023-03-06T22:59:36.261Z,4.27
2023-03-06T23:04:41.265Z,3.57
2023-03-06T23:09:44.684Z,4.07
2023-03-06T23:15:08.286Z,4.40
2023-03-06T23:20:31.560Z,3.78
2023-03-06T23:25:54.321Z,4.43
2023-03-06T23:30:57.912Z,4.47
2023-03-06T23:36:06.099Z,3.87
2023-03-06T23:41:12.782Z,4.10
2023-03-06T23:46:16.850Z,4.27
2023-03-06T23:51:24.267Z,4.90
2023-03-06T23:56:29.359Z,4.23
